地図

経路データ

SID SEASON NUMBER BASIN SUBBASIN NAME ISO_TIME NATURE LAT LON WMO_WIND WMO_PRES WMO_AGENCY TRACK_TYPE DIST2LAND LANDFALL IFLAG USA_AGENCY USA_ATCF_ID USA_LAT USA_LON USA_RECORD USA_STATUS USA_WIND USA_PRES USA_SSHS USA_R34_NE USA_R34_SE USA_R34_SW USA_R34_NW USA_R50_NE USA_R50_SE USA_R50_SW USA_R50_NW USA_R64_NE USA_R64_SE USA_R64_SW USA_R64_NW USA_POCI USA_ROCI USA_RMW USA_EYE TOKYO_LAT TOKYO_LON TOKYO_GRADE TOKYO_WIND TOKYO_PRES TOKYO_R50_DIR TOKYO_R50_LONG TOKYO_R50_SHORT TOKYO_R30_DIR TOKYO_R30_LONG TOKYO_R30_SHORT TOKYO_LAND CMA_LAT CMA_LON CMA_CAT CMA_WIND CMA_PRES HKO_LAT HKO_LON HKO_CAT HKO_WIND HKO_PRES NEWDELHI_LAT NEWDELHI_LON NEWDELHI_GRADE NEWDELHI_WIND NEWDELHI_PRES NEWDELHI_CI NEWDELHI_DP NEWDELHI_POCI REUNION_LAT REUNION_LON REUNION_TYPE REUNION_WIND REUNION_PRES REUNION_TNUM REUNION_CI REUNION_RMW REUNION_R34_NE REUNION_R34_SE REUNION_R34_SW REUNION_R34_NW REUNION_R50_NE REUNION_R50_SE REUNION_R50_SW REUNION_R50_NW REUNION_R64_NE REUNION_R64_SE REUNION_R64_SW REUNION_R64_NW BOM_LAT BOM_LON BOM_TYPE BOM_WIND BOM_PRES BOM_TNUM BOM_CI BOM_RMW BOM_R34_NE BOM_R34_SE BOM_R34_SW BOM_R34_NW BOM_R50_NE BOM_R50_SE BOM_R50_SW BOM_R50_NW BOM_R64_NE BOM_R64_SE BOM_R64_SW BOM_R64_NW BOM_ROCI BOM_POCI BOM_EYE BOM_POS_METHOD BOM_PRES_METHOD NADI_LAT NADI_LON NADI_CAT NADI_WIND NADI_PRES WELLINGTON_LAT WELLINGTON_LON WELLINGTON_WIND WELLINGTON_PRES DS824_LAT DS824_LON DS824_STAGE DS824_WIND DS824_PRES TD9636_LAT TD9636_LON TD9636_STAGE TD9636_WIND TD9636_PRES TD9635_LAT TD9635_LON TD9635_WIND TD9635_PRES TD9635_ROCI NEUMANN_LAT NEUMANN_LON NEUMANN_CLASS NEUMANN_WIND NEUMANN_PRES MLC_LAT MLC_LON MLC_CLASS MLC_WIND MLC_PRES USA_GUST BOM_GUST BOM_GUST_PER REUNION_GUST REUNION_GUST_PER USA_SEAHGT USA_SEARAD_NE USA_SEARAD_SE USA_SEARAD_SW USA_SEARAD_NW STORM_SPEED STORM_DIR
1969236N18343 1969 61 NA NA NOT_NAMED 1969-08-24 00:00:00 TS 17.5000 -17.0000 25 hurdat_atl main 96 96 O_____________ hurdat_atl AL101969 17.5000 -17.0000 TD 25 -1 11 276
1969236N18343 1969 61 NA NA NOT_NAMED 1969-08-24 03:00:00 TS 17.5530 -17.5499 main 148 148 P_____________ AL101969 17.5530 -17.5499 TD 25 -1 10 276
1969236N18343 1969 61 NA NA NOT_NAMED 1969-08-24 06:00:00 TS 17.6000 -18.0000 25 hurdat_atl main 199 199 O_____________ hurdat_atl AL101969 17.6000 -18.0000 TD 25 -1 7 277
1969236N18343 1969 61 NA NA NOT_NAMED 1969-08-24 09:00:00 TS 17.6423 -18.2876 main 229 229 P_____________ AL101969 17.6423 -18.2876 TD 25 -1 5 282
1969236N18343 1969 61 NA NA NOT_NAMED 1969-08-24 12:00:00 TS 17.7000 -18.5000 25 hurdat_atl main 253 253 O_____________ hurdat_atl AL101969 17.7000 -18.5000 TD 25 -1 4 291
1969236N18343 1969 61 NA NA NOT_NAMED 1969-08-24 15:00:00 TS 17.7998 -18.7125 main 276 276 P_____________ AL101969 17.7998 -18.7125 TD 25 -1 5 293
1969236N18343 1969 61 NA NA NOT_NAMED 1969-08-24 18:00:00 TS 17.9000 -19.0000 25 hurdat_atl main 310 310 O_____________ hurdat_atl AL101969 17.9000 -19.0000 TD 25 -1 7 283
1969236N18343 1969 61 NA NA NOT_NAMED 1969-08-24 21:00:00 TS 17.9651 -19.4625 main 352 352 P_____________ AL101969 17.9651 -19.4625 TD 25 -1 10 276
1969236N18343 1969 61 NA NA NOT_NAMED 1969-08-25 00:00:00 TS 18.0000 -20.0000 25 hurdat_atl main 400 400 O_____________ hurdat_atl AL101969 18.0000 -20.0000 TD 25 -1 10 272
1969236N18343 1969 61 NA NA NOT_NAMED 1969-08-25 03:00:00 TS 17.9999 -20.5001 main 449 449 P_____________ AL101969 17.9999 -20.5001 TD 25 -1 10 270
1969236N18343 1969 61 NA NA NOT_NAMED 1969-08-25 06:00:00 TS 18.0000 -21.0000 25 hurdat_atl main 499 499 O_____________ hurdat_atl AL101969 18.0000 -21.0000 TD 25 -1 10 273
1969236N18343 1969 61 NA NA NOT_NAMED 1969-08-25 09:00:00 TS 18.0424 -21.5000 main 549 549 P_____________ AL101969 18.0424 -21.5000 TD 25 -1 10 276
1969236N18343 1969 61 NA NA NOT_NAMED 1969-08-25 12:00:00 TS 18.1000 -22.0000 25 hurdat_atl main 595 595 O_____________ hurdat_atl AL101969 18.1000 -22.0000 TD 25 -1 10 276
1969236N18343 1969 61 NA NA NOT_NAMED 1969-08-25 15:00:00 TS 18.1349 -22.5002 main 641 641 P_____________ AL101969 18.1349 -22.5002 TD 25 -1 10 276
1969236N18343 1969 61 NA NA NOT_NAMED 1969-08-25 18:00:00 TS 18.2000 -23.0000 25 hurdat_atl main 683 683 O_____________ hurdat_atl AL101969 18.2000 -23.0000 TD 25 -1 10 283
1969236N18343 1969 61 NA NA NOT_NAMED 1969-08-25 21:00:00 TS 18.3573 -23.4923 main 722 722 P_____________ AL101969 18.3573 -23.4923 TD 25 -1 10 288
1969236N18343 1969 61 NA NA NOT_NAMED 1969-08-26 00:00:00 TS 18.5000 -24.0000 25 hurdat_atl main 766 766 O_____________ hurdat_atl AL101969 18.5000 -24.0000 TD 25 -1 10 280
1969236N18343 1969 61 NA NA NOT_NAMED 1969-08-26 03:00:00 TS 18.5217 -24.4827 main 816 816 P_____________ AL101969 18.5217 -24.4827 TD 25 -1 10 270
1969236N18343 1969 61 NA NA NOT_NAMED 1969-08-26 06:00:00 TS 18.5000 -25.1000 25 hurdat_atl main 876 876 O_____________ hurdat_atl AL101969 18.5000 -25.1000 TD 25 -1 14 269
1969236N18343 1969 61 NA NA NOT_NAMED 1969-08-26 09:00:00 TS 18.5004 -25.9975 main 966 966 P_____________ AL101969 18.5004 -25.9975 TD 25 -1 18 270
1969236N18343 1969 61 NA NA NOT_NAMED 1969-08-26 12:00:00 TS 18.5000 -27.0000 25 hurdat_atl main 1067 1067 O_____________ hurdat_atl AL101969 18.5000 -27.0000 TD 25 -1 18 270
1969236N18343 1969 61 NA NA NOT_NAMED 1969-08-26 15:00:00 TS 18.4989 -27.8700 main 1159 1159 P_____________ AL101969 18.4989 -27.8700 TD 25 -1 17 270
1969236N18343 1969 61 NA NA NOT_NAMED 1969-08-26 18:00:00 TS 18.5000 -28.8000 25 hurdat_atl main 1251 1251 O_____________ hurdat_atl AL101969 18.5000 -28.8000 TD 25 -1 20 270
1969236N18343 1969 61 NA NA NOT_NAMED 1969-08-26 21:00:00 TS 18.5081 -29.9499 main 1364 1364 P_____________ AL101969 18.5081 -29.9499 TD 25 -1 22 270
1969236N18343 1969 61 NA NA NOT_NAMED 1969-08-27 00:00:00 TS 18.5000 -31.1000 25 hurdat_atl main 1487 1487 O_____________ hurdat_atl AL101969 18.5000 -31.1000 TD 25 -1 20 268
1969236N18343 1969 61 NA NA NOT_NAMED 1969-08-27 03:00:00 TS 18.4564 -32.0300 main 1580 1580 P_____________ AL101969 18.4564 -32.0300 TD 25 -1 17 267
1969236N18343 1969 61 NA NA NOT_NAMED 1969-08-27 06:00:00 TS 18.4000 -32.9000 25 hurdat_atl main 1675 1675 O_____________ hurdat_atl AL101969 18.4000 -32.9000 TD 25 -1 18 267
1969236N18343 1969 61 NA NA NOT_NAMED 1969-08-27 09:00:00 TS 18.3502 -33.8875 main 1779 1779 P_____________ AL101969 18.3502 -33.8875 TD 25 -1 18 267
1969236N18343 1969 61 NA NA NOT_NAMED 1969-08-27 12:00:00 TS 18.3000 -34.8000 25 hurdat_atl main 1874 1874 O_____________ hurdat_atl AL101969 18.3000 -34.8000 TD 25 -1 15 266
1969236N18343 1969 61 NA NA NOT_NAMED 1969-08-27 15:00:00 TS 18.2562 -35.4498 main 1936 1936 P_____________ AL101969 18.2562 -35.4498 TD 25 -1 12 265
1969236N18343 1969 61 NA NA NOT_NAMED 1969-08-27 18:00:00 TS 18.2000 -36.1000 25 hurdat_atl main 2011 2011 O_____________ hurdat_atl AL101969 18.2000 -36.1000 TD 25 -1 15 264
1969236N18343 1969 61 NA NA NOT_NAMED 1969-08-27 21:00:00 TS 18.1118 -36.9754 main 2106 2106 P_____________ AL101969 18.1118 -36.9754 TD 25 -1 18 264
1969236N18343 1969 61 NA NA NOT_NAMED 1969-08-28 00:00:00 TS 18.0000 -38.0000 25 hurdat_atl main 2109 O_____________ hurdat_atl AL101969 18.0000 -38.0000 TD 25 -1 20 263

IBTrACS Databaseについて

本データベースは、米国NOAAが公開する1842年以降の世界の熱帯低気圧のベストトラックデータアーカイブInternational Best Track Archive for Climate Stewardship (IBTrACS)を、ウェブで閲覧しやすい形式に変換したものです。

最終更新日:2021-12-06